EST,Max TemperatureF,Mean TemperatureF,Min TemperatureF,Max Dew PointF,MeanDew PointF,Min DewpointF,Max Humidity, Mean Humidity, Min Humidity, Max Sea Level PressureIn, Mean Sea Level PressureIn, Min Sea Level PressureIn, Max VisibilityMiles, Mean VisibilityMiles, Min VisibilityMiles, Max Wind SpeedMPH, Mean Wind SpeedMPH, Max Gust SpeedMPH,PrecipitationIn, CloudCover, Events, WindDirDegrees
2013-2-1,50,39,26,27,17,1,67,40,14,30.38,30.23,30.09,10,10,10,18,9,34,0.00,1,,299
2013-2-2,55,38,22,30,15,8,75,40,19,30.40,30.27,30.09,10,10,8,20,4,28,0.00,1,,196
2013-2-3,60,50,39,35,28,19,74,49,25,30.07,30.00,29.90,10,10,10,24,11,32,0.00,1,,274
2013-2-4,52,40,27,31,26,21,88,60,30,30.16,30.10,30.05,10,10,10,8,2,,0.00,5,,111
2013-2-5,67,54,41,44,40,34,77,51,32,30.05,29.99,29.94,10,10,10,15,7,,0.00,3,,252
2013-2-6,64,64,52,33,31,30,47,35,28,30.14,30.13,30.12,10,10,10,6,4,,0.00,0,,355
2013-2-7,50,47,44,48,45,40,100,89,73,30.21,30.04,29.87,10,4,2,15,8,25,1.32,8,Rain,32
2013-2-8,61,51,41,47,43,33,97,76,57,30.07,29.95,29.89,10,10,10,14,9,23,0.00,5,,290
2013-2-9,62,46,30,32,22,14,91,36,16,30.30,30.27,30.24,10,10,10,10,5,,0.00,0,,343
2013-2-10,63,51,39,50,42,29,97,64,33,30.45,30.30,30.19,10,10,6,16,7,16,0.15,6,Rain,99
2013-2-11,69,60,51,63,58,50,100,94,73,30.23,30.10,30.04,10,8,3,14,9,21,0.66,8,Rain,199
2013-2-12,63,56,49,55,49,40,100,80,41,30.11,30.01,29.91,10,10,4,14,7,18,0.39,7,Rain,20
2013-2-13,59,53,47,57,49,41,100,94,69,29.91,29.79,29.69,10,7,0,23,6,31,0.14,7,Fog-Rain,200
2013-2-14,53,43,33,40,37,34,100,83,50,30.10,30.03,29.90,10,8,2,6,3,,0.00,3,Fog,331
2013-2-15,63,46,28,41,33,28,100,85,29,30.14,30.06,29.96,10,6,1,6,2,,0.00,1,,343
2013-2-16,44,40,35,37,35,32,95,85,67,29.99,29.90,29.86,10,10,6,24,7,36,0.24,6,Rain,300
2013-2-17,45,37,27,20,14,9,73,40,23,30.27,30.22,30.18,10,10,9,16,10,22,0.00,0,,262
2013-2-18,57,48,32,26,22,15,78,40,24,30.44,30.34,30.27,10,10,10,13,4,,0.00,0,,145
2013-2-19,52,42,32,52,44,25,100,91,71,30.27,30.04,29.97,10,6,0,16,7,25,0.21,5,Fog-Rain,213
2013-2-20,59,42,26,35,25,18,100,52,22,30.17,30.11,30.06,10,9,7,7,2,,0.00,2,Fog,288
2013-2-21,61,46,30,32,23,17,90,44,21,30.23,30.15,30.10,10,9,7,9,4,,0.00,3,,58
2013-2-22,46,42,38,39,37,27,100,91,46,30.23,30.17,30.12,10,5,2,13,7,20,0.26,8,Rain,41
2013-2-23,46,42,37,45,41,37,100,97,93,30.12,29.96,29.87,10,4,0,21,5,25,0.45,8,Fog-Rain,4
2013-2-24,66,52,39,46,44,36,100,88,34,30.01,29.94,29.87,10,8,1,12,7,,0.01,5,,295
2013-2-25,49,44,38,39,31,28,97,62,49,30.14,30.06,29.99,10,9,7,13,8,20,0.00,6,Rain,57
2013-2-26,62,50,38,63,46,30,100,96,61,30.01,29.74,29.56,10,6,1,14,8,20,1.28,8,Fog-Rain,47
2013-2-27,62,51,40,44,38,35,99,62,39,29.88,29.81,29.76,10,9,7,15,10,22,0.00,3,,238
2013-2-28,56,48,38,36,29,27,81,48,35,29.92,29.85,29.81,10,9,7,22,12,31,0.00,3,Rain,279